sensor_id;sensor_type;location;lat;lon;timestamp;temperature;humidity
15574;DHT22;7888;46.748;8.102;2022-11-20T00:01:09;10.20;54.20
15574;DHT22;7888;46.748;8.102;2022-11-20T00:03:46;10.20;54.80
15574;DHT22;7888;46.748;8.102;2022-11-20T00:06:16;10.20;54.20
15574;DHT22;7888;46.748;8.102;2022-11-20T00:08:44;10.20;54.50
15574;DHT22;7888;46.748;8.102;2022-11-20T00:11:13;10.20;54.30
15574;DHT22;7888;46.748;8.102;2022-11-20T00:13:45;10.20;54.30
15574;DHT22;7888;46.748;8.102;2022-11-20T00:16:14;10.20;54.30
15574;DHT22;7888;46.748;8.102;2022-11-20T00:18:41;10.20;54.30
15574;DHT22;7888;46.748;8.102;2022-11-20T00:21:15;10.20;54.30
15574;DHT22;7888;46.748;8.102;2022-11-20T00:23:43;10.20;54.50
15574;DHT22;7888;46.748;8.102;2022-11-20T00:26:12;10.20;54.40
15574;DHT22;7888;46.748;8.102;2022-11-20T00:28:39;10.20;54.50
15574;DHT22;7888;46.748;8.102;2022-11-20T00:31:08;10.20;54.40
15574;DHT22;7888;46.748;8.102;2022-11-20T00:33:36;10.20;54.50
15574;DHT22;7888;46.748;8.102;2022-11-20T00:36:08;10.20;54.40
15574;DHT22;7888;46.748;8.102;2022-11-20T00:38:36;10.20;54.80
15574;DHT22;7888;46.748;8.102;2022-11-20T00:41:05;10.20;54.40
15574;DHT22;7888;46.748;8.102;2022-11-20T00:43:33;10.20;54.40
15574;DHT22;7888;46.748;8.102;2022-11-20T00:46:04;10.20;54.30
15574;DHT22;7888;46.748;8.102;2022-11-20T00:48:32;10.20;54.40
15574;DHT22;7888;46.748;8.102;2022-11-20T00:50:59;10.20;54.40
15574;DHT22;7888;46.748;8.102;2022-11-20T00:53:25;10.20;54.50
15574;DHT22;7888;46.748;8.102;2022-11-20T00:55:59;10.20;54.50
15574;DHT22;7888;46.748;8.102;2022-11-20T00:58:32;10.10;54.80
15574;DHT22;7888;46.748;8.102;2022-11-20T01:01:08;10.10;54.50
15574;DHT22;7888;46.748;8.102;2022-11-20T01:03:39;10.20;54.60
15574;DHT22;7888;46.748;8.102;2022-11-20T01:06:12;10.10;54.50
15574;DHT22;7888;46.748;8.102;2022-11-20T01:08:46;10.20;54.60
15574;DHT22;7888;46.748;8.102;2022-11-20T01:11:18;10.20;54.60
15574;DHT22;7888;46.748;8.102;2022-11-20T01:13:49;10.20;54.80
15574;DHT22;7888;46.748;8.102;2022-11-20T01:16:19;10.20;54.60
15574;DHT22;7888;46.748;8.102;2022-11-20T01:18:50;10.20;54.70
15574;DHT22;7888;46.748;8.102;2022-11-20T01:21:23;10.10;54.60
15574;DHT22;7888;46.748;8.102;2022-11-20T01:23:53;10.20;54.70
15574;DHT22;7888;46.748;8.102;2022-11-20T01:26:24;10.20;54.60
15574;DHT22;7888;46.748;8.102;2022-11-20T01:28:53;10.20;55.00
15574;DHT22;7888;46.748;8.102;2022-11-20T01:31:24;10.20;54.90
15574;DHT22;7888;46.748;8.102;2022-11-20T01:33:53;10.20;55.00
15574;DHT22;7888;46.748;8.102;2022-11-20T01:36:22;10.20;54.90
15574;DHT22;7888;46.748;8.102;2022-11-20T01:39:12;10.20;54.90
15574;DHT22;7888;46.748;8.102;2022-11-20T01:41:43;10.20;55.60
15574;DHT22;7888;46.748;8.102;2022-11-20T01:50:26;10.20;55.00
15574;DHT22;7888;46.748;8.102;2022-11-20T01:53:04;10.20;55.20
15574;DHT22;7888;46.748;8.102;2022-11-20T01:55:35;10.20;55.00
15574;DHT22;7888;46.748;8.102;2022-11-20T01:58:04;10.20;54.90
15574;DHT22;7888;46.748;8.102;2022-11-20T02:00:32;10.10;54.80
15574;DHT22;7888;46.748;8.102;2022-11-20T02:03:01;10.20;54.90
15574;DHT22;7888;46.748;8.102;2022-11-20T02:05:50;10.10;54.90
15574;DHT22;7888;46.748;8.102;2022-11-20T02:08:21;10.20;55.00
15574;DHT22;7888;46.748;8.102;2022-11-20T02:10:49;10.20;54.90
15574;DHT22;7888;46.748;8.102;2022-11-20T02:13:15;10.20;54.90
15574;DHT22;7888;46.748;8.102;2022-11-20T02:16:00;10.20;55.00
15574;DHT22;7888;46.748;8.102;2022-11-20T02:18:28;10.20;54.90
15574;DHT22;7888;46.748;8.102;2022-11-20T02:21:06;10.20;55.10
15574;DHT22;7888;46.748;8.102;2022-11-20T02:23:41;10.20;55.40
15574;DHT22;7888;46.748;8.102;2022-11-20T02:26:30;10.20;54.90
15574;DHT22;7888;46.748;8.102;2022-11-20T02:28:59;10.20;54.90
15574;DHT22;7888;46.748;8.102;2022-11-20T02:31:27;10.20;55.10
15574;DHT22;7888;46.748;8.102;2022-11-20T02:33:59;10.20;55.10
15574;DHT22;7888;46.748;8.102;2022-11-20T02:36:27;10.20;55.40
15574;DHT22;7888;46.748;8.102;2022-11-20T02:38:55;10.20;55.20
15574;DHT22;7888;46.748;8.102;2022-11-20T02:41:21;10.20;55.20
15574;DHT22;7888;46.748;8.102;2022-11-20T02:43:47;10.20;55.20
15574;DHT22;7888;46.748;8.102;2022-11-20T02:46:13;10.20;55.20
15574;DHT22;7888;46.748;8.102;2022-11-20T02:48:39;10.20;55.20
15574;DHT22;7888;46.748;8.102;2022-11-20T02:51:05;10.20;55.20
15574;DHT22;7888;46.748;8.102;2022-11-20T02:53:30;10.20;55.20
15574;DHT22;7888;46.748;8.102;2022-11-20T02:55:56;10.20;55.20
15574;DHT22;7888;46.748;8.102;2022-11-20T02:58:22;10.20;55.30
15574;DHT22;7888;46.748;8.102;2022-11-20T03:00:48;10.20;55.30
15574;DHT22;7888;46.748;8.102;2022-11-20T03:03:14;10.20;55.20
15574;DHT22;7888;46.748;8.102;2022-11-20T03:05:39;10.20;55.00
15574;DHT22;7888;46.748;8.102;2022-11-20T03:08:05;10.10;54.90
15574;DHT22;7888;46.748;8.102;2022-11-20T03:10:31;10.10;55.00
15574;DHT22;7888;46.748;8.102;2022-11-20T03:12:57;10.10;55.10
15574;DHT22;7888;46.748;8.102;2022-11-20T03:15:23;10.10;55.20
15574;DHT22;7888;46.748;8.102;2022-11-20T03:17:52;10.10;55.20
15574;DHT22;7888;46.748;8.102;2022-11-20T03:20:19;10.10;55.20
15574;DHT22;7888;46.748;8.102;2022-11-20T03:22:45;10.00;55.30
15574;DHT22;7888;46.748;8.102;2022-11-20T03:25:11;10.00;55.40
15574;DHT22;7888;46.748;8.102;2022-11-20T03:27:36;10.00;55.40
15574;DHT22;7888;46.748;8.102;2022-11-20T03:30:03;10.00;55.50
15574;DHT22;7888;46.748;8.102;2022-11-20T03:32:30;10.00;55.60
15574;DHT22;7888;46.748;8.102;2022-11-20T03:34:56;10.00;55.60
15574;DHT22;7888;46.748;8.102;2022-11-20T03:37:21;10.00;55.60
15574;DHT22;7888;46.748;8.102;2022-11-20T03:39:47;10.00;55.60
15574;DHT22;7888;46.748;8.102;2022-11-20T03:42:13;10.00;55.60
15574;DHT22;7888;46.748;8.102;2022-11-20T03:44:57;10.00;55.60
15574;DHT22;7888;46.748;8.102;2022-11-20T03:47:23;10.00;55.60
15574;DHT22;7888;46.748;8.102;2022-11-20T03:49:49;10.00;55.60
15574;DHT22;7888;46.748;8.102;2022-11-20T03:52:15;10.00;55.70
15574;DHT22;7888;46.748;8.102;2022-11-20T03:54:41;10.00;55.70
15574;DHT22;7888;46.748;8.102;2022-11-20T03:57:06;10.00;55.60
15574;DHT22;7888;46.748;8.102;2022-11-20T03:59:32;10.00;55.40
15574;DHT22;7888;46.748;8.102;2022-11-20T04:01:58;10.00;55.40
15574;DHT22;7888;46.748;8.102;2022-11-20T04:04:24;10.00;55.40
15574;DHT22;7888;46.748;8.102;2022-11-20T04:06:50;10.00;55.30
15574;DHT22;7888;46.748;8.102;2022-11-20T04:09:16;10.00;55.20
15574;DHT22;7888;46.748;8.102;2022-11-20T04:11:41;10.00;55.30
15574;DHT22;7888;46.748;8.102;2022-11-20T04:14:13;10.00;55.30
15574;DHT22;7888;46.748;8.102;2022-11-20T04:16:40;10.00;55.50
15574;DHT22;7888;46.748;8.102;2022-11-20T04:19:10;10.00;55.30
15574;DHT22;7888;46.748;8.102;2022-11-20T04:21:41;10.00;55.40
15574;DHT22;7888;46.748;8.102;2022-11-20T04:24:08;10.00;55.30
15574;DHT22;7888;46.748;8.102;2022-11-20T04:26:35;10.00;55.30
15574;DHT22;7888;46.748;8.102;2022-11-20T04:29:02;10.00;55.30
15574;DHT22;7888;46.748;8.102;2022-11-20T04:31:31;10.00;55.30
15574;DHT22;7888;46.748;8.102;2022-11-20T04:34:00;10.00;55.30
15574;DHT22;7888;46.748;8.102;2022-11-20T04:36:28;9.90;55.20
15574;DHT22;7888;46.748;8.102;2022-11-20T04:39:00;9.90;55.20
15574;DHT22;7888;46.748;8.102;2022-11-20T04:41:30;9.90;55.20
15574;DHT22;7888;46.748;8.102;2022-11-20T04:43:59;9.90;55.30
15574;DHT22;7888;46.748;8.102;2022-11-20T04:46:33;9.90;55.30
15574;DHT22;7888;46.748;8.102;2022-11-20T04:49:01;9.90;55.20
15574;DHT22;7888;46.748;8.102;2022-11-20T04:51:27;9.90;55.30
15574;DHT22;7888;46.748;8.102;2022-11-20T04:53:53;9.80;55.30
15574;DHT22;7888;46.748;8.102;2022-11-20T04:56:20;9.90;55.30
15574;DHT22;7888;46.748;8.102;2022-11-20T04:58:45;9.80;55.30
15574;DHT22;7888;46.748;8.102;2022-11-20T05:01:16;9.80;55.30
15574;DHT22;7888;46.748;8.102;2022-11-20T05:03:45;9.80;55.30
15574;DHT22;7888;46.748;8.102;2022-11-20T05:06:13;9.80;55.20
15574;DHT22;7888;46.748;8.102;2022-11-20T05:08:41;9.80;55.20
15574;DHT22;7888;46.748;8.102;2022-11-20T05:11:19;9.80;55.10
15574;DHT22;7888;46.748;8.102;2022-11-20T05:13:46;9.80;55.30
15574;DHT22;7888;46.748;8.102;2022-11-20T05:16:17;9.80;55.20
15574;DHT22;7888;46.748;8.102;2022-11-20T05:18:48;9.80;55.40
15574;DHT22;7888;46.748;8.102;2022-11-20T05:21:16;9.80;55.20
15574;DHT22;7888;46.748;8.102;2022-11-20T05:23:43;9.70;55.10
15574;DHT22;7888;46.748;8.102;2022-11-20T05:26:27;9.70;55.20
15574;DHT22;7888;46.748;8.102;2022-11-20T05:28:53;9.70;55.50
15574;DHT22;7888;46.748;8.102;2022-11-20T05:31:21;9.70;55.10
15574;DHT22;7888;46.748;8.102;2022-11-20T05:33:49;9.70;55.10
15574;DHT22;7888;46.748;8.102;2022-11-20T05:36:15;9.70;55.10
15574;DHT22;7888;46.748;8.102;2022-11-20T05:38:42;9.70;55.20
15574;DHT22;7888;46.748;8.102;2022-11-20T05:41:14;9.70;55.20
15574;DHT22;7888;46.748;8.102;2022-11-20T05:43:43;9.70;55.30
15574;DHT22;7888;46.748;8.102;2022-11-20T05:46:11;9.70;55.20
15574;DHT22;7888;46.748;8.102;2022-11-20T05:48:40;9.70;55.30
15574;DHT22;7888;46.748;8.102;2022-11-20T05:51:10;9.70;55.40
15574;DHT22;7888;46.748;8.102;2022-11-20T05:53:37;9.70;55.40
15574;DHT22;7888;46.748;8.102;2022-11-20T05:56:12;9.70;55.50
15574;DHT22;7888;46.748;8.102;2022-11-20T05:58:40;9.70;55.70
15574;DHT22;7888;46.748;8.102;2022-11-20T06:01:16;9.70;55.50
15574;DHT22;7888;46.748;8.102;2022-11-20T06:03:47;9.70;55.60
15574;DHT22;7888;46.748;8.102;2022-11-20T06:06:16;9.70;55.40
15574;DHT22;7888;46.748;8.102;2022-11-20T06:08:44;9.70;55.40
15574;DHT22;7888;46.748;8.102;2022-11-20T06:11:12;9.70;55.50
15574;DHT22;7888;46.748;8.102;2022-11-20T06:13:39;9.70;55.50
15574;DHT22;7888;46.748;8.102;2022-11-20T06:16:05;9.70;55.50
15574;DHT22;7888;46.748;8.102;2022-11-20T06:18:31;9.60;55.40
15574;DHT22;7888;46.748;8.102;2022-11-20T06:21:06;9.60;55.40
15574;DHT22;7888;46.748;8.102;2022-11-20T06:23:34;9.60;55.60
15574;DHT22;7888;46.748;8.102;2022-11-20T06:26:09;9.60;55.40
15574;DHT22;7888;46.748;8.102;2022-11-20T06:28:37;9.60;55.50
15574;DHT22;7888;46.748;8.102;2022-11-20T06:31:04;9.50;55.30
15574;DHT22;7888;46.748;8.102;2022-11-20T06:33:30;9.50;55.40
15574;DHT22;7888;46.748;8.102;2022-11-20T06:35:58;9.50;55.30
15574;DHT22;7888;46.748;8.102;2022-11-20T06:38:26;9.40;55.40
15574;DHT22;7888;46.748;8.102;2022-11-20T06:40:52;9.40;55.40
15574;DHT22;7888;46.748;8.102;2022-11-20T06:43:19;9.40;55.40
15574;DHT22;7888;46.748;8.102;2022-11-20T06:45:45;9.40;55.40
15574;DHT22;7888;46.748;8.102;2022-11-20T06:48:11;9.30;55.40
15574;DHT22;7888;46.748;8.102;2022-11-20T06:50:37;9.30;55.40
15574;DHT22;7888;46.748;8.102;2022-11-20T06:53:04;9.30;55.60
15574;DHT22;7888;46.748;8.102;2022-11-20T06:55:31;9.30;55.70
15574;DHT22;7888;46.748;8.102;2022-11-20T06:57:57;9.30;55.80
15574;DHT22;7888;46.748;8.102;2022-11-20T07:00:24;9.20;55.80
15574;DHT22;7888;46.748;8.102;2022-11-20T07:02:50;9.30;56.00
15574;DHT22;7888;46.748;8.102;2022-11-20T07:05:17;9.20;55.90
15574;DHT22;7888;46.748;8.102;2022-11-20T07:07:43;9.20;55.90
15574;DHT22;7888;46.748;8.102;2022-11-20T07:10:09;9.20;55.80
15574;DHT22;7888;46.748;8.102;2022-11-20T07:12:36;9.30;55.90
15574;DHT22;7888;46.748;8.102;2022-11-20T07:15:02;9.30;55.90
15574;DHT22;7888;46.748;8.102;2022-11-20T07:17:28;9.30;55.90
15574;DHT22;7888;46.748;8.102;2022-11-20T07:19:54;9.30;56.00
15574;DHT22;7888;46.748;8.102;2022-11-20T07:22:20;9.30;56.00
15574;DHT22;7888;46.748;8.102;2022-11-20T07:24:47;9.30;56.00
15574;DHT22;7888;46.748;8.102;2022-11-20T07:27:13;9.30;56.00
15574;DHT22;7888;46.748;8.102;2022-11-20T07:29:39;9.40;56.00
15574;DHT22;7888;46.748;8.102;2022-11-20T07:32:05;9.40;56.10
15574;DHT22;7888;46.748;8.102;2022-11-20T07:34:31;9.40;56.00
15574;DHT22;7888;46.748;8.102;2022-11-20T07:36:57;9.40;56.00
15574;DHT22;7888;46.748;8.102;2022-11-20T07:39:22;9.50;56.00
15574;DHT22;7888;46.748;8.102;2022-11-20T07:41:48;9.50;56.00
15574;DHT22;7888;46.748;8.102;2022-11-20T07:44:14;9.50;56.00
15574;DHT22;7888;46.748;8.102;2022-11-20T07:46:40;9.50;56.10
15574;DHT22;7888;46.748;8.102;2022-11-20T07:49:06;9.50;56.10
15574;DHT22;7888;46.748;8.102;2022-11-20T07:51:31;9.60;56.10
15574;DHT22;7888;46.748;8.102;2022-11-20T07:53:57;9.60;56.10
15574;DHT22;7888;46.748;8.102;2022-11-20T07:56:23;9.60;56.10
15574;DHT22;7888;46.748;8.102;2022-11-20T07:58:49;9.60;56.20
15574;DHT22;7888;46.748;8.102;2022-11-20T08:01:15;9.70;56.20
15574;DHT22;7888;46.748;8.102;2022-11-20T08:03:40;9.70;56.10
15574;DHT22;7888;46.748;8.102;2022-11-20T08:06:07;9.70;56.10
15574;DHT22;7888;46.748;8.102;2022-11-20T08:08:33;9.70;56.00
15574;DHT22;7888;46.748;8.102;2022-11-20T08:10:59;9.70;55.80
15574;DHT22;7888;46.748;8.102;2022-11-20T08:13:43;9.80;55.90
15574;DHT22;7888;46.748;8.102;2022-11-20T08:16:29;9.80;56.00
15574;DHT22;7888;46.748;8.102;2022-11-20T08:18:55;9.80;56.10
15574;DHT22;7888;46.748;8.102;2022-11-20T08:21:20;9.90;56.10
15574;DHT22;7888;46.748;8.102;2022-11-20T08:23:46;9.90;56.10
15574;DHT22;7888;46.748;8.102;2022-11-20T08:26:12;9.90;56.10
15574;DHT22;7888;46.748;8.102;2022-11-20T08:28:38;9.90;56.20
15574;DHT22;7888;46.748;8.102;2022-11-20T08:31:04;9.90;56.30
15574;DHT22;7888;46.748;8.102;2022-11-20T08:33:30;9.90;56.30
15574;DHT22;7888;46.748;8.102;2022-11-20T08:36:02;9.90;56.40
15574;DHT22;7888;46.748;8.102;2022-11-20T08:38:29;9.90;56.70
15574;DHT22;7888;46.748;8.102;2022-11-20T08:41:00;10.00;56.70
15574;DHT22;7888;46.748;8.102;2022-11-20T08:43:46;10.00;56.60
15574;DHT22;7888;46.748;8.102;2022-11-20T08:46:11;10.10;56.50
15574;DHT22;7888;46.748;8.102;2022-11-20T08:48:38;10.10;56.50
15574;DHT22;7888;46.748;8.102;2022-11-20T08:51:04;10.10;56.50
15574;DHT22;7888;46.748;8.102;2022-11-20T08:53:30;10.10;56.80
15574;DHT22;7888;46.748;8.102;2022-11-20T08:55:59;10.20;57.40
15574;DHT22;7888;46.748;8.102;2022-11-20T08:58:25;10.30;57.60
15574;DHT22;7888;46.748;8.102;2022-11-20T09:00:51;10.40;57.40
15574;DHT22;7888;46.748;8.102;2022-11-20T09:03:18;10.50;57.10
15574;DHT22;7888;46.748;8.102;2022-11-20T09:05:44;10.60;56.70
15574;DHT22;7888;46.748;8.102;2022-11-20T09:08:10;10.70;56.80
15574;DHT22;7888;46.748;8.102;2022-11-20T09:10:36;10.80;56.70
15574;DHT22;7888;46.748;8.102;2022-11-20T09:13:05;10.90;57.00
15574;DHT22;7888;46.748;8.102;2022-11-20T09:15:31;11.00;57.10
15574;DHT22;7888;46.748;8.102;2022-11-20T09:18:02;11.20;57.10
15574;DHT22;7888;46.748;8.102;2022-11-20T09:20:32;11.30;57.10
15574;DHT22;7888;46.748;8.102;2022-11-20T09:22:57;11.50;57.10
15574;DHT22;7888;46.748;8.102;2022-11-20T09:25:23;11.70;56.90
15574;DHT22;7888;46.748;8.102;2022-11-20T09:27:58;11.90;56.80
15574;DHT22;7888;46.748;8.102;2022-11-20T09:30:26;12.10;56.70
15574;DHT22;7888;46.748;8.102;2022-11-20T09:32:52;12.30;56.70
15574;DHT22;7888;46.748;8.102;2022-11-20T09:35:18;12.50;56.00
15574;DHT22;7888;46.748;8.102;2022-11-20T09:37:45;12.60;55.30
15574;DHT22;7888;46.748;8.102;2022-11-20T09:40:22;12.70;55.10
15574;DHT22;7888;46.748;8.102;2022-11-20T09:42:56;12.80;54.70
15574;DHT22;7888;46.748;8.102;2022-11-20T09:49:13;12.90;53.60
15574;DHT22;7888;46.748;8.102;2022-11-20T09:52:10;13.00;53.50
15574;DHT22;7888;46.748;8.102;2022-11-20T09:54:48;13.00;53.50
15574;DHT22;7888;46.748;8.102;2022-11-20T09:57:20;13.00;53.50
15574;DHT22;7888;46.748;8.102;2022-11-20T09:59:53;13.00;52.80
15574;DHT22;7888;46.748;8.102;2022-11-20T10:05:06;13.00;52.60
15574;DHT22;7888;46.748;8.102;2022-11-20T10:07:48;13.00;52.40
15574;DHT22;7888;46.748;8.102;2022-11-20T10:10:34;13.00;51.90
15574;DHT22;7888;46.748;8.102;2022-11-20T10:13:17;13.00;51.90
15574;DHT22;7888;46.748;8.102;2022-11-20T10:18:51;13.00;51.20
15574;DHT22;7888;46.748;8.102;2022-11-20T10:27:59;13.00;51.30
15574;DHT22;7888;46.748;8.102;2022-11-20T10:30:38;13.10;51.10
15574;DHT22;7888;46.748;8.102;2022-11-20T10:33:19;13.20;51.40
15574;DHT22;7888;46.748;8.102;2022-11-20T10:35:59;13.40;51.30
15574;DHT22;7888;46.748;8.102;2022-11-20T10:39:01;13.50;51.10
15574;DHT22;7888;46.748;8.102;2022-11-20T10:41:40;13.70;50.90
15574;DHT22;7888;46.748;8.102;2022-11-20T10:44:20;13.90;50.80
15574;DHT22;7888;46.748;8.102;2022-11-20T10:47:16;14.10;50.40
15574;DHT22;7888;46.748;8.102;2022-11-20T10:49:48;14.20;50.30
15574;DHT22;7888;46.748;8.102;2022-11-20T10:58:08;14.20;49.10
15574;DHT22;7888;46.748;8.102;2022-11-20T11:00:38;14.20;49.10
15574;DHT22;7888;46.748;8.102;2022-11-20T11:03:26;14.30;49.60
15574;DHT22;7888;46.748;8.102;2022-11-20T11:08:38;14.60;49.10
15574;DHT22;7888;46.748;8.102;2022-11-20T11:11:30;14.80;49.70
15574;DHT22;7888;46.748;8.102;2022-11-20T11:14:06;15.10;48.80
15574;DHT22;7888;46.748;8.102;2022-11-20T11:16:33;15.40;49.00
15574;DHT22;7888;46.748;8.102;2022-11-20T11:19:07;15.70;49.30
15574;DHT22;7888;46.748;8.102;2022-11-20T11:21:53;16.00;48.40
15574;DHT22;7888;46.748;8.102;2022-11-20T11:24:25;16.50;48.40
15574;DHT22;7888;46.748;8.102;2022-11-20T11:26:59;17.00;48.90
15574;DHT22;7888;46.748;8.102;2022-11-20T11:29:32;17.40;47.70
15574;DHT22;7888;46.748;8.102;2022-11-20T11:32:13;17.90;48.00
15574;DHT22;7888;46.748;8.102;2022-11-20T11:34:39;18.40;47.30
15574;DHT22;7888;46.748;8.102;2022-11-20T11:37:13;19.00;48.90
15574;DHT22;7888;46.748;8.102;2022-11-20T11:39:43;19.60;46.80
15574;DHT22;7888;46.748;8.102;2022-11-20T11:42:17;20.20;47.20
15574;DHT22;7888;46.748;8.102;2022-11-20T11:44:46;20.80;45.30
15574;DHT22;7888;46.748;8.102;2022-11-20T11:55:54;22.30;41.70
15574;DHT22;7888;46.748;8.102;2022-11-20T12:01:36;22.60;41.20
15574;DHT22;7888;46.748;8.102;2022-11-20T12:05:05;22.60;39.50
15574;DHT22;7888;46.748;8.102;2022-11-20T12:07:36;22.60;38.50
15574;DHT22;7888;46.748;8.102;2022-11-20T12:12:52;22.40;38.20
15574;DHT22;7888;46.748;8.102;2022-11-20T12:15:30;22.10;38.40
15574;DHT22;7888;46.748;8.102;2022-11-20T12:17:59;21.80;38.20
15574;DHT22;7888;46.748;8.102;2022-11-20T12:20:41;21.50;38.70
15574;DHT22;7888;46.748;8.102;2022-11-20T12:29:29;20.40;38.70
15574;DHT22;7888;46.748;8.102;2022-11-20T12:51:12;18.30;40.20
15574;DHT22;7888;46.748;8.102;2022-11-20T13:06:18;17.20;41.00
15574;DHT22;7888;46.748;8.102;2022-11-20T13:08:52;16.90;41.00
15574;DHT22;7888;46.748;8.102;2022-11-20T13:14:11;16.50;41.10
15574;DHT22;7888;46.748;8.102;2022-11-20T13:19:30;16.20;41.60
15574;DHT22;7888;46.748;8.102;2022-11-20T13:21:57;16.00;41.80
15574;DHT22;7888;46.748;8.102;2022-11-20T13:24:28;15.90;41.80
15574;DHT22;7888;46.748;8.102;2022-11-20T13:29:35;15.60;42.00
15574;DHT22;7888;46.748;8.102;2022-11-20T13:34:55;15.40;42.70
15574;DHT22;7888;46.748;8.102;2022-11-20T13:37:32;15.30;42.40
15574;DHT22;7888;46.748;8.102;2022-11-20T13:42:51;15.10;42.30
15574;DHT22;7888;46.748;8.102;2022-11-20T13:45:25;15.00;42.50
15574;DHT22;7888;46.748;8.102;2022-11-20T13:47:54;14.90;42.70
15574;DHT22;7888;46.748;8.102;2022-11-20T13:50:46;14.80;42.80
15574;DHT22;7888;46.748;8.102;2022-11-20T14:02:27;14.40;42.80
15574;DHT22;7888;46.748;8.102;2022-11-20T14:04:57;14.30;43.10
15574;DHT22;7888;46.748;8.102;2022-11-20T14:07:34;14.20;43.10
15574;DHT22;7888;46.748;8.102;2022-11-20T14:10:03;14.10;43.40
15574;DHT22;7888;46.748;8.102;2022-11-20T14:12:31;14.00;43.50
15574;DHT22;7888;46.748;8.102;2022-11-20T14:14:59;14.00;43.40
15574;DHT22;7888;46.748;8.102;2022-11-20T14:17:32;13.90;43.50
15574;DHT22;7888;46.748;8.102;2022-11-20T14:20:05;13.90;43.60
15574;DHT22;7888;46.748;8.102;2022-11-20T14:22:37;13.80;43.60
15574;DHT22;7888;46.748;8.102;2022-11-20T14:25:20;13.80;43.90
15574;DHT22;7888;46.748;8.102;2022-11-20T14:27:52;13.70;43.50
15574;DHT22;7888;46.748;8.102;2022-11-20T14:30:25;13.70;43.90
15574;DHT22;7888;46.748;8.102;2022-11-20T14:33:03;13.70;43.90
15574;DHT22;7888;46.748;8.102;2022-11-20T14:35:34;13.60;44.10
15574;DHT22;7888;46.748;8.102;2022-11-20T14:38:09;13.60;44.30
15574;DHT22;7888;46.748;8.102;2022-11-20T14:40:38;13.50;44.40
15574;DHT22;7888;46.748;8.102;2022-11-20T14:46:03;13.50;44.60
15574;DHT22;7888;46.748;8.102;2022-11-20T14:48:47;13.50;44.30
15574;DHT22;7888;46.748;8.102;2022-11-20T14:53:52;13.40;44.40
15574;DHT22;7888;46.748;8.102;2022-11-20T14:56:23;13.40;44.60
15574;DHT22;7888;46.748;8.102;2022-11-20T14:58:57;13.40;44.90
15574;DHT22;7888;46.748;8.102;2022-11-20T15:01:27;13.30;45.00
15574;DHT22;7888;46.748;8.102;2022-11-20T15:04:10;13.30;45.20
15574;DHT22;7888;46.748;8.102;2022-11-20T15:06:37;13.30;45.30
15574;DHT22;7888;46.748;8.102;2022-11-20T15:09:04;13.20;45.40
15574;DHT22;7888;46.748;8.102;2022-11-20T15:11:38;13.20;45.30
15574;DHT22;7888;46.748;8.102;2022-11-20T15:14:06;13.10;45.30
15574;DHT22;7888;46.748;8.102;2022-11-20T15:16:32;13.10;45.40
15574;DHT22;7888;46.748;8.102;2022-11-20T15:18:59;13.00;45.40
15574;DHT22;7888;46.748;8.102;2022-11-20T15:21:26;12.90;45.20
15574;DHT22;7888;46.748;8.102;2022-11-20T15:23:52;12.80;45.00
15574;DHT22;7888;46.748;8.102;2022-11-20T15:26:25;12.70;45.00
15574;DHT22;7888;46.748;8.102;2022-11-20T15:28:52;12.60;45.00
15574;DHT22;7888;46.748;8.102;2022-11-20T15:31:21;12.50;45.30
15574;DHT22;7888;46.748;8.102;2022-11-20T15:33:48;12.40;45.40
15574;DHT22;7888;46.748;8.102;2022-11-20T15:36:14;12.30;45.20
15574;DHT22;7888;46.748;8.102;2022-11-20T15:38:40;12.30;45.30
15574;DHT22;7888;46.748;8.102;2022-11-20T15:41:06;12.20;45.50
15574;DHT22;7888;46.748;8.102;2022-11-20T15:43:33;12.20;45.70
15574;DHT22;7888;46.748;8.102;2022-11-20T15:46:11;12.10;45.30
15574;DHT22;7888;46.748;8.102;2022-11-20T15:48:42;12.00;45.10
15574;DHT22;7888;46.748;8.102;2022-11-20T15:53:36;11.90;45.30
15574;DHT22;7888;46.748;8.102;2022-11-20T15:56:03;11.80;45.30
15574;DHT22;7888;46.748;8.102;2022-11-20T15:58:29;11.80;45.30
15574;DHT22;7888;46.748;8.102;2022-11-20T16:00:55;11.70;45.40
15574;DHT22;7888;46.748;8.102;2022-11-20T16:03:22;11.70;45.50
15574;DHT22;7888;46.748;8.102;2022-11-20T16:05:48;11.60;45.60
15574;DHT22;7888;46.748;8.102;2022-11-20T16:08:14;11.60;45.70
15574;DHT22;7888;46.748;8.102;2022-11-20T16:10:40;11.50;46.30
15574;DHT22;7888;46.748;8.102;2022-11-20T16:13:15;11.40;45.80
15574;DHT22;7888;46.748;8.102;2022-11-20T16:16:18;11.40;45.90
15574;DHT22;7888;46.748;8.102;2022-11-20T16:18:46;11.30;46.10
15574;DHT22;7888;46.748;8.102;2022-11-20T16:21:12;11.30;46.10
15574;DHT22;7888;46.748;8.102;2022-11-20T16:23:41;11.20;46.30
15574;DHT22;7888;46.748;8.102;2022-11-20T16:26:12;11.20;46.40
15574;DHT22;7888;46.748;8.102;2022-11-20T16:28:40;11.20;46.60
15574;DHT22;7888;46.748;8.102;2022-11-20T16:31:16;11.10;46.70
15574;DHT22;7888;46.748;8.102;2022-11-20T16:33:49;11.10;46.70
15574;DHT22;7888;46.748;8.102;2022-11-20T16:36:17;11.10;46.90
15574;DHT22;7888;46.748;8.102;2022-11-20T16:38:44;11.10;47.00
15574;DHT22;7888;46.748;8.102;2022-11-20T16:41:10;11.10;46.90
15574;DHT22;7888;46.748;8.102;2022-11-20T16:43:48;11.00;46.90
15574;DHT22;7888;46.748;8.102;2022-11-20T16:46:18;11.00;46.90
15574;DHT22;7888;46.748;8.102;2022-11-20T16:48:55;10.90;46.70
15574;DHT22;7888;46.748;8.102;2022-11-20T16:51:30;10.90;46.70
15574;DHT22;7888;46.748;8.102;2022-11-20T16:53:57;10.80;46.70
15574;DHT22;7888;46.748;8.102;2022-11-20T16:56:26;10.80;46.60
15574;DHT22;7888;46.748;8.102;2022-11-20T16:58:54;10.70;46.70
15574;DHT22;7888;46.748;8.102;2022-11-20T17:01:23;10.60;46.80
15574;DHT22;7888;46.748;8.102;2022-11-20T17:04:06;10.50;46.80
15574;DHT22;7888;46.748;8.102;2022-11-20T17:06:34;10.50;46.80
15574;DHT22;7888;46.748;8.102;2022-11-20T17:09:03;10.40;46.90
15574;DHT22;7888;46.748;8.102;2022-11-20T17:11:29;10.40;47.00
15574;DHT22;7888;46.748;8.102;2022-11-20T17:13:56;10.40;47.20
15574;DHT22;7888;46.748;8.102;2022-11-20T17:16:32;10.30;47.40
15574;DHT22;7888;46.748;8.102;2022-11-20T17:18:59;10.30;47.60
15574;DHT22;7888;46.748;8.102;2022-11-20T17:21:25;10.30;47.70
15574;DHT22;7888;46.748;8.102;2022-11-20T17:23:51;10.30;47.80
15574;DHT22;7888;46.748;8.102;2022-11-20T17:26:21;10.30;47.80
15574;DHT22;7888;46.748;8.102;2022-11-20T17:29:05;10.30;48.00
15574;DHT22;7888;46.748;8.102;2022-11-20T17:31:43;10.30;48.00
15574;DHT22;7888;46.748;8.102;2022-11-20T17:34:12;10.30;47.90
15574;DHT22;7888;46.748;8.102;2022-11-20T17:36:39;10.30;48.10
15574;DHT22;7888;46.748;8.102;2022-11-20T17:39:10;10.30;48.00
15574;DHT22;7888;46.748;8.102;2022-11-20T17:41:36;10.30;48.00
15574;DHT22;7888;46.748;8.102;2022-11-20T17:44:02;10.30;48.00
15574;DHT22;7888;46.748;8.102;2022-11-20T17:46:32;10.30;48.00
15574;DHT22;7888;46.748;8.102;2022-11-20T17:48:59;10.30;48.20
15574;DHT22;7888;46.748;8.102;2022-11-20T17:51:28;10.30;48.30
15574;DHT22;7888;46.748;8.102;2022-11-20T17:54:00;10.30;48.20
15574;DHT22;7888;46.748;8.102;2022-11-20T17:56:32;10.30;48.20
15574;DHT22;7888;46.748;8.102;2022-11-20T17:59:17;10.30;48.30
15574;DHT22;7888;46.748;8.102;2022-11-20T18:01:44;10.30;48.40
15574;DHT22;7888;46.748;8.102;2022-11-20T18:04:10;10.30;48.50